Time;durP1;ratioP1;P1;durP2;ratioP2;P2;SDS_P1;SDS_P2;PMS_P1;PMS_P2;Temp;Humidity;BMP_temperature;BMP_pressure;BME280_temperature;BME280_humidity;BME280_pressure;Samples;Min_cycle;Max_cycle;Signal;HPM_P1;HPM_P2
2021/05/04 00:00:54;;;;;;;2.25;1.25;;;;;;;;;;5090738;28;20404;-62
2021/05/04 00:03:20;;;;;;;20.23;1.40;;;;;;;;;;5091125;28;20194;-63
2021/05/04 00:05:46;;;;;;;1.27;1.15;;;;;;;;;;5094270;28;20193;-63
2021/05/04 00:08:12;;;;;;;2.25;0.88;;;;;;;;;;5094795;28;20323;-63
2021/05/04 00:10:38;;;;;;;1.20;1.10;;;;;;;;;;5094215;28;20211;-63
2021/05/04 00:13:04;;;;;;;1.63;1.52;;;;;;;;;;5094994;28;20178;-62
2021/05/04 00:15:30;;;;;;;1.53;1.43;;;;;;;;;;5094809;28;20205;-63
2021/05/04 00:17:56;;;;;;;0.95;0.95;;;;;;;;;;5094719;28;20454;-62
2021/05/04 00:20:22;;;;;;;0.80;0.80;;;;;;;;;;5094046;28;20171;-62
2021/05/04 00:22:48;;;;;;;1.50;1.40;;;;;;;;;;5094586;28;20238;-63
2021/05/04 00:25:14;;;;;;;0.70;0.70;;;;;;;;;;5094585;28;20653;-62
2021/05/04 00:27:40;;;;;;;1.40;1.30;;;;;;;;;;5094636;28;20177;-63
2021/05/04 00:30:06;;;;;;;0.83;0.83;;;;;;;;;;5093841;28;20174;-62
2021/05/04 00:32:32;;;;;;;0.93;0.93;;;;;;;;;;5094508;28;20771;-62
2021/05/04 00:34:58;;;;;;;0.80;0.65;;;;;;;;;;5094417;28;20197;-63
2021/05/04 00:37:24;;;;;;;1.27;1.27;;;;;;;;;;5094408;28;20185;-62
2021/05/04 00:39:50;;;;;;;1.35;1.30;;;;;;;;;;5093558;28;20177;-62
2021/05/04 00:42:16;;;;;;;0.90;0.90;;;;;;;;;;5094413;28;20539;-62
2021/05/04 00:44:42;;;;;;;1.10;1.05;;;;;;;;;;5094365;28;20828;-63
2021/05/04 00:47:08;;;;;;;1.13;1.13;;;;;;;;;;5094362;28;20278;-63
2021/05/04 00:49:34;;;;;;;0.83;0.83;;;;;;;;;;5093567;28;20407;-63
2021/05/04 00:52:00;;;;;;;1.40;1.40;;;;;;;;;;5094383;28;20408;-62
2021/05/04 00:54:27;;;;;;;1.25;1.15;;;;;;;;;;5093947;28;20250;-62
2021/05/04 00:56:54;;;;;;;0.77;0.77;;;;;;;;;;5094056;28;20174;-62
2021/05/04 00:59:22;;;;;;;0.75;0.75;;;;;;;;;;5093624;28;20249;-62
2021/05/04 01:01:49;;;;;;;0.95;0.80;;;;;;;;;;5094010;28;20219;-62
2021/05/04 01:04:15;;;;;;;0.90;0.90;;;;;;;;;;5093825;28;20245;-63
2021/05/04 01:06:41;;;;;;;1.42;1.33;;;;;;;;;;5093740;28;20242;-62
2021/05/04 01:09:07;;;;;;;0.93;0.93;;;;;;;;;;5092998;28;20170;-63
2021/05/04 01:11:33;;;;;;;1.30;1.30;;;;;;;;;;5093855;28;20197;-62
2021/05/04 01:13:59;;;;;;;1.08;0.95;;;;;;;;;;5093672;28;20518;-62
2021/05/04 01:16:25;;;;;;;1.35;1.25;;;;;;;;;;5093605;28;20257;-63
2021/05/04 01:18:53;;;;;;;1.02;0.93;;;;;;;;;;5092933;28;20540;-62
2021/05/04 01:21:19;;;;;;;0.63;0.63;;;;;;;;;;5093589;28;20579;-63
2021/05/04 01:23:45;;;;;;;0.98;0.85;;;;;;;;;;5093463;28;20578;-62
2021/05/04 01:26:11;;;;;;;0.80;0.80;;;;;;;;;;5093459;28;20169;-63
2021/05/04 01:28:37;;;;;;;0.80;0.80;;;;;;;;;;5093258;28;20170;-63
2021/05/04 01:31:03;;;;;;;0.85;0.85;;;;;;;;;;5092703;28;20173;-63
2021/05/04 01:33:29;;;;;;;0.80;0.80;;;;;;;;;;5093326;28;20641;-63
2021/05/04 01:35:55;;;;;;;1.98;1.10;;;;;;;;;;5093234;28;20177;-63
2021/05/04 01:38:21;;;;;;;1.40;1.25;;;;;;;;;;5093154;28;20184;-63
2021/05/04 01:40:47;;;;;;;0.93;0.90;;;;;;;;;;5092436;28;20172;-63
2021/05/04 01:43:13;;;;;;;1.10;1.10;;;;;;;;;;5091325;28;20333;-63
2021/05/04 01:45:39;;;;;;;1.47;1.23;;;;;;;;;;5093051;28;20205;-62
2021/05/04 01:48:05;;;;;;;2.50;1.40;;;;;;;;;;5093061;28;20404;-63
2021/05/04 01:50:31;;;;;;;0.95;0.90;;;;;;;;;;5092305;28;20170;-63
2021/05/04 01:52:57;;;;;;;1.53;1.43;;;;;;;;;;5092938;28;20185;-62
2021/05/04 01:55:23;;;;;;;1.37;0.93;;;;;;;;;;5092899;28;20939;-63
2021/05/04 01:57:49;;;;;;;0.80;0.80;;;;;;;;;;5092738;28;20446;-62
2021/05/04 02:00:16;;;;;;;1.77;1.67;;;;;;;;;;5092178;28;20411;-63
2021/05/04 02:02:42;;;;;;;0.82;0.80;;;;;;;;;;5092661;28;20455;-63
2021/05/04 02:05:08;;;;;;;1.60;1.58;;;;;;;;;;5092623;28;20685;-62
2021/05/04 02:07:34;;;;;;;1.10;0.50;;;;;;;;;;5092623;28;20171;-62
2021/05/04 02:10:00;;;;;;;1.85;1.65;;;;;;;;;;5091976;28;20220;-62
2021/05/04 02:12:26;;;;;;;0.88;0.88;;;;;;;;;;5092640;28;20173;-62
2021/05/04 02:14:53;;;;;;;0.65;0.65;;;;;;;;;;5074217;28;20599;-63
2021/05/04 02:17:19;;;;;;;1.67;1.58;;;;;;;;;;5092384;28;20215;-62
2021/05/04 02:19:45;;;;;;;1.38;1.02;;;;;;;;;;5091760;28;20181;-63
2021/05/04 02:22:11;;;;;;;1.92;1.65;;;;;;;;;;5092377;28;20265;-62
2021/05/04 02:24:37;;;;;;;0.90;0.90;;;;;;;;;;5092261;28;20205;-63
2021/05/04 02:27:03;;;;;;;1.48;1.27;;;;;;;;;;5091717;28;20629;-62
2021/05/04 02:29:29;;;;;;;0.88;0.88;;;;;;;;;;5091522;28;20732;-63
2021/05/04 02:31:55;;;;;;;1.02;1.00;;;;;;;;;;5092296;28;20207;-62
2021/05/04 02:34:21;;;;;;;0.80;0.80;;;;;;;;;;5092189;28;20274;-63
2021/05/04 02:36:47;;;;;;;1.45;1.35;;;;;;;;;;5092110;28;20415;-63
2021/05/04 02:39:13;;;;;;;1.65;1.08;;;;;;;;;;5091366;28;20170;-63
2021/05/04 02:41:39;;;;;;;0.80;0.80;;;;;;;;;;5092348;28;20176;-63
2021/05/04 02:44:05;;;;;;;2.40;2.30;;;;;;;;;;5091731;28;20275;-63
2021/05/04 02:46:32;;;;;;;0.88;0.88;;;;;;;;;;5092055;28;20420;-63
2021/05/04 02:48:58;;;;;;;0.70;0.70;;;;;;;;;;5091276;28;20283;-62
2021/05/04 02:51:24;;;;;;;0.70;0.70;;;;;;;;;;5091844;28;20584;-62
2021/05/04 02:53:50;;;;;;;1.33;1.10;;;;;;;;;;5091836;28;20240;-62
2021/05/04 02:56:16;;;;;;;3.28;1.17;;;;;;;;;;5091817;28;20520;-62
2021/05/04 02:58:42;;;;;;;1.67;1.30;;;;;;;;;;5091512;28;20177;-63
2021/05/04 03:01:08;;;;;;;1.42;1.33;;;;;;;;;;5091537;28;20171;-63
2021/05/04 03:03:35;;;;;;;0.85;0.85;;;;;;;;;;5091631;28;20210;-63
2021/05/04 03:06:02;;;;;;;0.70;0.70;;;;;;;;;;5091815;28;20180;-62
2021/05/04 03:08:28;;;;;;;1.00;1.00;;;;;;;;;;5091627;28;20173;-63
2021/05/04 03:10:54;;;;;;;1.67;1.33;;;;;;;;;;5091027;28;20174;-62
2021/05/04 03:13:26;;;;;;;0.65;0.65;;;;;;;;;;5091485;28;20182;-63
2021/05/04 03:15:52;;;;;;;0.80;0.80;;;;;;;;;;5091540;28;20174;-62
2021/05/04 03:18:18;;;;;;;1.10;1.10;;;;;;;;;;5091656;28;20182;-62
2021/05/04 03:20:44;;;;;;;2.00;0.80;;;;;;;;;;5090853;28;20636;-62
2021/05/04 03:23:10;;;;;;;0.80;0.80;;;;;;;;;;5091416;28;20456;-62
2021/05/04 03:25:37;;;;;;;0.75;0.75;;;;;;;;;;5091292;28;20193;-63
2021/05/04 03:28:03;;;;;;;0.90;0.90;;;;;;;;;;5091212;28;20281;-62
2021/05/04 03:30:29;;;;;;;0.50;0.50;;;;;;;;;;5090616;28;20679;-62
2021/05/04 03:32:55;;;;;;;1.00;1.00;;;;;;;;;;5091384;28;20174;-62
2021/05/04 03:35:21;;;;;;;2.47;2.28;;;;;;;;;;5091399;28;20676;-63
2021/05/04 03:37:47;;;;;;;2.90;1.02;;;;;;;;;;5073157;28;20193;-62
2021/05/04 03:40:13;;;;;;;2.58;1.70;;;;;;;;;;5075234;28;20185;-63
2021/05/04 03:42:40;;;;;;;1.48;1.38;;;;;;;;;;5095385;28;20184;-63
2021/05/04 03:45:06;;;;;;;2.58;1.15;;;;;;;;;;5095269;28;20223;-63
2021/05/04 03:47:32;;;;;;;1.00;1.00;;;;;;;;;;5095306;28;20196;-62
2021/05/04 03:49:58;;;;;;;0.80;0.80;;;;;;;;;;5094529;28;20176;-62
2021/05/04 03:52:24;;;;;;;1.10;1.10;;;;;;;;;;5095356;28;20457;-62
2021/05/04 03:54:50;;;;;;;1.10;1.10;;;;;;;;;;5095221;28;20277;-62
2021/05/04 03:57:16;;;;;;;1.37;1.27;;;;;;;;;;5095076;28;20446;-63
2021/05/04 03:59:42;;;;;;;6.83;2.10;;;;;;;;;;5094483;28;20776;-62
2021/05/04 04:02:08;;;;;;;0.80;0.80;;;;;;;;;;5095132;28;20443;-63
2021/05/04 04:04:34;;;;;;;0.87;0.87;;;;;;;;;;5094982;28;21043;-63
2021/05/04 04:07:00;;;;;;;2.20;1.37;;;;;;;;;;5094943;28;20404;-63
2021/05/04 04:09:26;;;;;;;0.73;0.73;;;;;;;;;;5094266;28;20401;-62
2021/05/04 04:11:52;;;;;;;1.67;1.05;;;;;;;;;;5094864;28;20627;-62
2021/05/04 04:14:18;;;;;;;0.80;0.80;;;;;;;;;;5093698;28;20237;-62
2021/05/04 04:16:44;;;;;;;1.33;1.17;;;;;;;;;;5094770;28;20410;-62
2021/05/04 04:19:10;;;;;;;0.52;0.52;;;;;;;;;;5094017;28;20206;-62
2021/05/04 04:21:36;;;;;;;1.17;1.17;;;;;;;;;;5094775;28;20185;-63
2021/05/04 04:24:03;;;;;;;1.90;0.93;;;;;;;;;;5094514;28;20258;-63
2021/05/04 04:26:29;;;;;;;1.02;0.65;;;;;;;;;;5094551;28;20256;-62
2021/05/04 04:28:55;;;;;;;0.75;0.75;;;;;;;;;;5075687;28;20213;-62
2021/05/04 04:31:21;;;;;;;2.58;0.85;;;;;;;;;;5094549;28;20189;-63
2021/05/04 04:33:47;;;;;;;1.47;1.37;;;;;;;;;;5094391;28;20248;-62
2021/05/04 04:36:13;;;;;;;0.83;0.80;;;;;;;;;;5094385;28;20415;-62
2021/05/04 04:38:39;;;;;;;0.70;0.70;;;;;;;;;;5076075;28;20423;-63
2021/05/04 04:41:05;;;;;;;0.77;0.77;;;;;;;;;;5094039;28;20416;-63
2021/05/04 04:43:31;;;;;;;0.50;0.50;;;;;;;;;;5094099;28;20556;-62
2021/05/04 04:45:57;;;;;;;0.60;0.60;;;;;;;;;;5094780;28;20404;-63
2021/05/04 04:48:23;;;;;;;3.88;2.28;;;;;;;;;;5093957;28;20176;-63
2021/05/04 04:50:49;;;;;;;1.08;1.08;;;;;;;;;;5093200;28;20522;-63
2021/05/04 04:53:15;;;;;;;1.60;1.50;;;;;;;;;;5094136;28;20190;-63
2021/05/04 04:55:42;;;;;;;0.70;0.70;;;;;;;;;;5075920;28;20254;-63
2021/05/04 04:58:08;;;;;;;0.55;0.55;;;;;;;;;;5093940;28;20400;-63
2021/05/04 05:00:33;;;;;;;0.70;0.70;;;;;;;;;;5093227;28;20173;-63
2021/05/04 05:02:59;;;;;;;1.00;0.83;;;;;;;;;;5093835;28;20451;-63
2021/05/04 05:05:26;;;;;;;0.73;0.73;;;;;;;;;;5093786;28;20508;-63
2021/05/04 05:07:51;;;;;;;0.50;0.50;;;;;;;;;;5093725;28;20162;-63
2021/05/04 05:10:18;;;;;;;1.20;1.20;;;;;;;;;;5093037;28;20519;-63
2021/05/04 05:12:44;;;;;;;1.20;1.20;;;;;;;;;;5091125;28;20478;-63
2021/05/04 05:15:10;;;;;;;1.05;0.95;;;;;;;;;;5084478;28;20202;-63
2021/05/04 05:17:36;;;;;;;1.98;1.80;;;;;;;;;;5073267;28;20542;-63
2021/05/04 05:20:02;;;;;;;0.98;0.98;;;;;;;;;;5055894;28;20268;-62
2021/05/04 05:22:29;;;;;;;1.25;0.90;;;;;;;;;;5073206;28;20250;-63
2021/05/04 05:24:56;;;;;;;1.48;1.38;;;;;;;;;;5079142;28;20205;-63
2021/05/04 05:27:22;;;;;;;0.98;0.98;;;;;;;;;;5081573;28;20208;-63
2021/05/04 05:29:48;;;;;;;0.65;0.65;;;;;;;;;;5087487;28;20208;-63
2021/05/04 05:32:14;;;;;;;1.55;1.45;;;;;;;;;;5085168;28;20574;-63
2021/05/04 05:34:40;;;;;;;2.30;1.47;;;;;;;;;;5081690;28;20251;-62
2021/05/04 05:37:06;;;;;;;0.95;0.95;;;;;;;;;;5089603;28;20456;-63
2021/05/04 05:39:32;;;;;;;0.70;0.70;;;;;;;;;;5075989;28;20781;-62
2021/05/04 05:41:58;;;;;;;1.20;1.10;;;;;;;;;;5056161;28;20170;-62
2021/05/04 05:44:24;;;;;;;0.87;0.80;;;;;;;;;;5073788;28;20233;-62
2021/05/04 05:46:53;;;;;;;0.93;0.67;;;;;;;;;;5088028;28;20427;-62
2021/05/04 05:49:19;;;;;;;2.05;1.30;;;;;;;;;;5083418;28;20434;-62
2021/05/04 05:51:45;;;;;;;0.90;0.90;;;;;;;;;;5092923;28;20170;-62
2021/05/04 05:54:11;;;;;;;1.37;1.23;;;;;;;;;;5088057;28;20447;-62
2021/05/04 05:56:37;;;;;;;0.90;0.90;;;;;;;;;;5092753;28;21099;-62
2021/05/04 05:59:03;;;;;;;0.93;0.93;;;;;;;;;;5091491;28;21015;-62
2021/05/04 06:01:29;;;;;;;1.08;1.08;;;;;;;;;;5091192;28;20167;-62
2021/05/04 06:03:55;;;;;;;0.50;0.50;;;;;;;;;;5090832;28;20202;-62
2021/05/04 06:06:21;;;;;;;0.70;0.70;;;;;;;;;;5092528;28;20216;-62
2021/05/04 06:08:47;;;;;;;0.67;0.67;;;;;;;;;;5091946;28;20419;-62
2021/05/04 06:11:13;;;;;;;1.20;1.20;;;;;;;;;;5092472;28;20405;-62
2021/05/04 06:13:39;;;;;;;0.60;0.60;;;;;;;;;;5092750;28;20215;-62
2021/05/04 06:16:07;;;;;;;1.25;0.90;;;;;;;;;;5092750;28;20205;-65
2021/05/04 06:18:33;;;;;;;1.00;1.00;;;;;;;;;;5092798;28;20178;-64
2021/05/04 06:20:59;;;;;;;1.67;0.90;;;;;;;;;;5091790;28;20166;-63
2021/05/04 06:23:25;;;;;;;1.00;1.00;;;;;;;;;;5092244;28;20224;-63
2021/05/04 06:25:51;;;;;;;1.90;1.80;;;;;;;;;;5092413;28;20397;-63
2021/05/04 06:28:17;;;;;;;0.80;0.80;;;;;;;;;;5092232;28;20633;-63
2021/05/04 06:30:44;;;;;;;1.05;1.05;;;;;;;;;;5091716;28;20703;-63
2021/05/04 06:33:11;;;;;;;2.50;1.00;;;;;;;;;;5092119;28;20251;-63
2021/05/04 06:35:40;;;;;;;1.05;1.05;;;;;;;;;;5092157;28;20198;-63
2021/05/04 06:38:06;;;;;;;0.90;0.82;;;;;;;;;;5092221;28;20167;-63
2021/05/04 06:40:32;;;;;;;0.93;0.93;;;;;;;;;;5091205;28;20175;-63
2021/05/04 06:42:59;;;;;;;2.72;1.65;;;;;;;;;;5071455;28;20230;-63
2021/05/04 06:45:26;;;;;;;2.22;1.42;;;;;;;;;;5071090;28;20238;-63
2021/05/04 06:47:52;;;;;;;1.30;1.20;;;;;;;;;;5071387;28;20239;-63
2021/05/04 06:50:18;;;;;;;1.40;1.30;;;;;;;;;;5070659;28;20634;-63
2021/05/04 06:52:44;;;;;;;1.17;1.10;;;;;;;;;;5071139;28;20175;-63
2021/05/04 06:55:10;;;;;;;1.30;1.17;;;;;;;;;;5071240;28;20274;-63
2021/05/04 06:57:37;;;;;;;1.63;1.52;;;;;;;;;;5071342;28;20605;-63
2021/05/04 07:00:04;;;;;;;1.13;1.05;;;;;;;;;;5070630;28;20167;-64
2021/05/04 07:02:30;;;;;;;1.02;1.02;;;;;;;;;;5070991;28;20202;-63
2021/05/04 07:04:56;;;;;;;2.88;0.85;;;;;;;;;;5070877;28;20234;-63
2021/05/04 07:07:22;;;;;;;0.95;0.95;;;;;;;;;;5071264;28;20217;-63
2021/05/04 07:09:48;;;;;;;0.85;0.85;;;;;;;;;;5070501;28;20686;-63
2021/05/04 07:12:14;;;;;;;1.30;1.20;;;;;;;;;;5071053;28;20175;-63
2021/05/04 07:14:40;;;;;;;0.60;0.60;;;;;;;;;;5070978;28;20422;-64
2021/05/04 07:17:06;;;;;;;0.80;0.80;;;;;;;;;;5052908;28;20167;-63
2021/05/04 07:19:33;;;;;;;1.95;0.80;;;;;;;;;;5070196;28;20296;-63
2021/05/04 07:21:59;;;;;;;0.70;0.70;;;;;;;;;;5071031;28;20203;-64
2021/05/04 07:24:25;;;;;;;0.82;0.82;;;;;;;;;;5070983;28;20207;-64
2021/05/04 07:26:51;;;;;;;1.33;1.25;;;;;;;;;;5071166;28;20175;-63
2021/05/04 07:29:17;;;;;;;1.10;1.10;;;;;;;;;;5070082;28;20218;-63
2021/05/04 07:31:43;;;;;;;1.63;1.23;;;;;;;;;;5071395;28;20175;-64
2021/05/04 07:34:10;;;;;;;0.90;0.90;;;;;;;;;;5071295;28;20521;-63
2021/05/04 07:36:36;;;;;;;1.38;0.90;;;;;;;;;;5078992;28;20182;-62
2021/05/04 07:39:02;;;;;;;0.73;0.73;;;;;;;;;;5090251;28;20630;-62
2021/05/04 07:41:30;;;;;;;0.80;0.80;;;;;;;;;;5090670;28;20210;-62
2021/05/04 07:43:56;;;;;;;0.68;0.63;;;;;;;;;;5090447;28;20567;-62
2021/05/04 07:46:22;;;;;;;0.90;0.90;;;;;;;;;;5090627;28;20177;-63
2021/05/04 07:48:48;;;;;;;0.70;0.70;;;;;;;;;;5090387;28;20403;-62
2021/05/04 07:51:14;;;;;;;0.82;0.82;;;;;;;;;;5090368;28;20409;-63
2021/05/04 07:53:41;;;;;;;1.20;1.10;;;;;;;;;;5090346;28;20176;-62
2021/05/04 07:56:07;;;;;;;0.70;0.70;;;;;;;;;;5090656;28;20178;-63
2021/05/04 07:58:33;;;;;;;0.90;0.90;;;;;;;;;;5090705;28;20416;-63
2021/05/04 08:00:59;;;;;;;0.50;0.40;;;;;;;;;;5090207;28;20405;-63
2021/05/04 08:03:27;;;;;;;1.13;1.13;;;;;;;;;;5090767;28;20221;-63
2021/05/04 08:05:53;;;;;;;0.90;0.90;;;;;;;;;;5090707;28;20730;-62
2021/05/04 08:08:19;;;;;;;3.25;1.50;;;;;;;;;;5091632;28;20442;-63
2021/05/04 08:10:45;;;;;;;1.60;1.50;;;;;;;;;;5091348;28;20207;-63
2021/05/04 08:13:11;;;;;;;0.53;0.53;;;;;;;;;;5090377;28;20848;-62
2021/05/04 08:15:39;;;;;;;1.13;1.03;;;;;;;;;;5090410;28;20879;-62
2021/05/04 08:18:06;;;;;;;0.90;0.70;;;;;;;;;;5090604;28;20386;-62
2021/05/04 08:20:34;;;;;;;1.43;1.33;;;;;;;;;;5089776;28;20417;-64
2021/05/04 08:23:00;;;;;;;0.90;0.90;;;;;;;;;;5090199;28;20421;-63
2021/05/04 08:25:27;;;;;;;2.40;1.43;;;;;;;;;;5091649;28;20443;-63
2021/05/04 08:27:53;;;;;;;0.87;0.80;;;;;;;;;;5094242;28;20452;-63
2021/05/04 08:30:19;;;;;;;0.60;0.60;;;;;;;;;;5093741;28;20935;-62
2021/05/04 08:32:47;;;;;;;1.20;1.17;;;;;;;;;;5094098;28;20443;-63
2021/05/04 08:35:13;;;;;;;0.70;0.70;;;;;;;;;;5094383;28;20403;-63
2021/05/04 08:37:40;;;;;;;1.73;1.10;;;;;;;;;;5094099;28;20407;-63
2021/05/04 08:40:06;;;;;;;0.70;0.70;;;;;;;;;;5093450;28;20378;-63
2021/05/04 08:42:32;;;;;;;1.40;1.03;;;;;;;;;;5093651;28;20412;-63
2021/05/04 08:45:01;;;;;;;1.00;1.00;;;;;;;;;;5093937;28;20446;-63
2021/05/04 08:47:28;;;;;;;1.63;1.30;;;;;;;;;;5094142;28;20380;-63
2021/05/04 08:49:54;;;;;;;1.20;1.20;;;;;;;;;;5093379;28;20400;-63
2021/05/04 08:52:20;;;;;;;1.10;0.93;;;;;;;;;;5093906;28;20405;-63
2021/05/04 08:54:46;;;;;;;0.70;0.70;;;;;;;;;;5093774;28;20435;-63
2021/05/04 08:57:12;;;;;;;0.73;0.73;;;;;;;;;;5093625;28;20444;-63
2021/05/04 08:59:38;;;;;;;0.70;0.70;;;;;;;;;;5093016;28;20415;-63
2021/05/04 09:02:05;;;;;;;1.13;1.03;;;;;;;;;;5093878;28;20854;-63
2021/05/04 09:07:29;;;;;;;0.97;0.87;;;;;;;;;;5093665;28;20475;-63
2021/05/04 09:10:00;;;;;;;1.03;0.80;;;;;;;;;;5092941;28;20374;-63
2021/05/04 09:12:41;;;;;;;0.90;0.90;;;;;;;;;;5091953;28;20500;-63
2021/05/04 09:15:27;;;;;;;1.10;1.00;;;;;;;;;;5093423;28;20521;-63
2021/05/04 09:17:53;;;;;;;1.47;1.23;;;;;;;;;;5092858;28;20751;-63
2021/05/04 09:20:29;;;;;;;2.00;1.13;;;;;;;;;;5092434;28;20458;-62
2021/05/04 09:23:07;;;;;;;2.20;0.90;;;;;;;;;;5093049;28;20427;-63
2021/05/04 09:25:38;;;;;;;0.73;0.70;;;;;;;;;;5092944;28;20399;-63
2021/05/04 09:28:08;;;;;;;1.33;1.20;;;;;;;;;;5092854;28;20794;-63
2021/05/04 09:30:34;;;;;;;1.80;1.60;;;;;;;;;;5091958;28;20509;-62
2021/05/04 09:33:07;;;;;;;0.70;0.70;;;;;;;;;;5092988;28;20412;-62
2021/05/04 09:35:33;;;;;;;0.90;0.90;;;;;;;;;;5092844;28;20407;-62
2021/05/04 09:38:03;;;;;;;1.43;0.87;;;;;;;;;;5073622;28;20424;-63
2021/05/04 09:40:32;;;;;;;1.37;1.27;;;;;;;;;;5092095;28;20436;-62
2021/05/04 09:43:19;;;;;;;0.80;0.67;;;;;;;;;;5092347;28;20404;-63
2021/05/04 09:45:48;;;;;;;0.80;0.80;;;;;;;;;;5092389;28;20944;-63
2021/05/04 09:48:18;;;;;;;0.77;0.77;;;;;;;;;;5092585;28;20446;-63
2021/05/04 09:51:05;;;;;;;0.93;0.83;;;;;;;;;;5091780;28;20715;-63
2021/05/04 09:56:30;;;;;;;1.10;0.90;;;;;;;;;;5092387;28;20413;-62
2021/05/04 09:58:56;;;;;;;1.30;1.10;;;;;;;;;;5091551;28;20396;-62
2021/05/04 10:01:22;;;;;;;0.60;0.57;;;;;;;;;;5092452;28;20404;-63
2021/05/04 10:03:49;;;;;;;0.77;0.60;;;;;;;;;;5092316;28;21001;-63
2021/05/04 10:06:16;;;;;;;0.80;0.80;;;;;;;;;;5092323;28;20444;-63
2021/05/04 10:08:43;;;;;;;1.03;0.83;;;;;;;;;;5091778;28;21046;-63
2021/05/04 10:11:10;;;;;;;0.90;0.90;;;;;;;;;;5073870;28;20408;-63
2021/05/04 10:13:38;;;;;;;2.90;0.87;;;;;;;;;;5092006;28;20405;-63
2021/05/04 10:16:05;;;;;;;2.43;1.00;;;;;;;;;;5092113;28;20800;-63
2021/05/04 10:18:31;;;;;;;3.43;1.30;;;;;;;;;;5091674;28;20416;-64
2021/05/04 10:20:58;;;;;;;0.90;0.90;;;;;;;;;;5072939;28;20465;-63
2021/05/04 10:23:25;;;;;;;2.87;1.27;;;;;;;;;;5091847;28;20827;-63
2021/05/04 10:25:52;;;;;;;0.90;0.90;;;;;;;;;;5091963;28;20407;-63
2021/05/04 10:28:19;;;;;;;1.47;1.07;;;;;;;;;;5091798;28;20784;-63
2021/05/04 10:30:45;;;;;;;1.40;1.30;;;;;;;;;;5090975;28;20375;-63
2021/05/04 10:33:26;;;;;;;0.93;0.83;;;;;;;;;;5091464;28;20519;-63
2021/05/04 10:35:52;;;;;;;0.70;0.70;;;;;;;;;;5091892;28;20390;-63
2021/05/04 10:38:18;;;;;;;1.13;1.03;;;;;;;;;;5091539;28;20378;-63
2021/05/04 10:41:08;;;;;;;0.80;0.80;;;;;;;;;;5091110;28;20406;-62
2021/05/04 10:43:35;;;;;;;1.00;1.00;;;;;;;;;;5090990;28;20577;-62
2021/05/04 10:46:04;;;;;;;2.83;1.43;;;;;;;;;;5091695;28;20779;-62
2021/05/04 10:48:36;;;;;;;0.70;0.70;;;;;;;;;;5091000;28;20468;-62
2021/05/04 10:51:03;;;;;;;1.17;1.00;;;;;;;;;;5090781;28;20396;-62
2021/05/04 10:53:49;;;;;;;0.90;0.90;;;;;;;;;;5091127;28;20383;-62
2021/05/04 10:56:16;;;;;;;4.13;0.83;;;;;;;;;;5090934;28;20408;-62
2021/05/04 10:58:46;;;;;;;2.03;1.47;;;;;;;;;;5090895;28;20415;-62
2021/05/04 11:01:17;;;;;;;0.73;0.73;;;;;;;;;;5090948;28;20408;-62
2021/05/04 11:03:44;;;;;;;1.03;1.00;;;;;;;;;;5091015;28;20423;-62
2021/05/04 11:06:15;;;;;;;0.90;0.73;;;;;;;;;;5090862;28;20405;-62
2021/05/04 11:08:41;;;;;;;0.90;0.90;;;;;;;;;;5090460;28;20404;-62
2021/05/04 11:11:19;;;;;;;4.63;1.07;;;;;;;;;;5091033;28;20423;-62
2021/05/04 11:13:48;;;;;;;1.30;1.20;;;;;;;;;;5091343;28;20961;-62
2021/05/04 11:16:53;;;;;;;1.27;0.90;;;;;;;;;;5091551;28;20513;-62
2021/05/04 11:19:29;;;;;;;0.80;0.80;;;;;;;;;;5008433;28;20889;-64
2021/05/04 11:21:58;;;;;;;2.80;1.37;;;;;;;;;;5008929;28;20889;-63
2021/05/04 11:24:30;;;;;;;1.60;0.87;;;;;;;;;;5054910;28;20563;-63
2021/05/04 11:27:00;;;;;;;0.80;0.80;;;;;;;;;;5090981;28;20411;-63
2021/05/04 11:29:32;;;;;;;0.90;0.90;;;;;;;;;;5090463;28;20170;-63
2021/05/04 11:32:18;;;;;;;1.07;0.97;;;;;;;;;;5072951;28;20412;-63
2021/05/04 11:34:47;;;;;;;0.87;0.83;;;;;;;;;;5091128;28;20418;-63
2021/05/04 11:37:35;;;;;;;0.87;0.87;;;;;;;;;;5091103;28;20386;-63
2021/05/04 11:40:14;;;;;;;1.93;1.83;;;;;;;;;;5090555;28;20404;-63
2021/05/04 11:42:40;;;;;;;0.87;0.70;;;;;;;;;;5091127;28;20385;-63
2021/05/04 11:45:08;;;;;;;1.10;1.00;;;;;;;;;;5092480;22;20506;-63
2021/05/04 11:47:34;;;;;;;0.93;0.90;;;;;;;;;;5050414;28;20898;-63
2021/05/04 11:50:13;;;;;;;1.10;1.00;;;;;;;;;;5048707;28;20460;-63
2021/05/04 11:52:39;;;;;;;1.17;1.17;;;;;;;;;;5047628;28;20410;-63
2021/05/04 11:55:07;;;;;;;2.37;1.80;;;;;;;;;;5050568;28;20429;-64
2021/05/04 11:57:33;;;;;;;0.97;0.87;;;;;;;;;;5050201;28;20402;-63
2021/05/04 11:59:59;;;;;;;3.20;1.00;;;;;;;;;;5050184;28;20403;-63
2021/05/04 12:02:32;;;;;;;4.37;0.90;;;;;;;;;;5054583;28;20772;-63
2021/05/04 12:04:59;;;;;;;0.83;0.83;;;;;;;;;;5054287;28;20459;-63
2021/05/04 12:07:37;;;;;;;2.33;2.03;;;;;;;;;;5036406;28;20428;-63
2021/05/04 12:10:04;;;;;;;1.90;0.90;;;;;;;;;;5053012;28;20852;-63
2021/05/04 12:12:47;;;;;;;1.13;1.13;;;;;;;;;;5035486;28;20790;-63
2021/05/04 12:15:14;;;;;;;0.80;0.80;;;;;;;;;;5053453;28;20420;-64
2021/05/04 12:17:41;;;;;;;1.50;1.40;;;;;;;;;;5053605;28;20389;-63
2021/05/04 12:20:14;;;;;;;0.60;0.60;;;;;;;;;;5052872;28;20437;-64
2021/05/04 12:22:44;;;;;;;1.33;1.00;;;;;;;;;;5053225;28;20489;-65
2021/05/04 12:25:10;;;;;;;1.33;0.90;;;;;;;;;;5053179;28;20829;-64
2021/05/04 12:27:36;;;;;;;1.30;1.20;;;;;;;;;;5053286;28;20449;-64
2021/05/04 12:30:02;;;;;;;0.87;0.87;;;;;;;;;;5052638;28;21045;-64
2021/05/04 12:32:28;;;;;;;1.53;1.43;;;;;;;;;;5035505;28;20418;-64
2021/05/04 12:35:12;;;;;;;1.03;0.80;;;;;;;;;;5053005;28;20434;-64
2021/05/04 12:37:38;;;;;;;1.83;0.97;;;;;;;;;;5053213;28;20498;-64
2021/05/04 12:40:18;;;;;;;0.97;0.97;;;;;;;;;;5052473;28;20415;-64
2021/05/04 12:42:46;;;;;;;0.80;0.77;;;;;;;;;;5053204;28;20509;-64
2021/05/04 12:45:13;;;;;;;1.00;0.93;;;;;;;;;;5052827;28;20512;-64
2021/05/04 12:47:54;;;;;;;1.27;1.17;;;;;;;;;;5052921;28;20413;-64
2021/05/04 12:50:27;;;;;;;0.80;0.70;;;;;;;;;;5034216;28;20480;-65
2021/05/04 12:52:53;;;;;;;1.17;0.90;;;;;;;;;;5052988;28;20925;-64
2021/05/04 12:55:19;;;;;;;1.37;1.27;;;;;;;;;;5052886;28;20474;-64
2021/05/04 12:57:45;;;;;;;1.07;0.97;;;;;;;;;;5052485;28;20424;-64
2021/05/04 13:00:13;;;;;;;1.17;0.87;;;;;;;;;;5052129;28;20434;-64
2021/05/04 13:02:39;;;;;;;0.70;0.70;;;;;;;;;;5052832;28;20407;-64
2021/05/04 13:05:08;;;;;;;2.83;1.23;;;;;;;;;;5052565;28;20878;-64
2021/05/04 13:07:50;;;;;;;0.70;0.70;;;;;;;;;;5052553;28;20475;-64
2021/05/04 13:10:47;;;;;;;0.60;0.60;;;;;;;;;;5051754;28;20440;-64
2021/05/04 13:30:21;;;;;;;1.10;1.10;;;;;;;;;;5013965;28;20505;-64
2021/05/04 13:32:51;;;;;;;0.73;0.73;;;;;;;;;;5052095;28;20429;-64
2021/05/04 13:35:21;;;;;;;0.50;0.50;;;;;;;;;;5052016;28;20820;-64
2021/05/04 13:48:28;;;;;;;0.73;0.73;;;;;;;;;;5051560;28;20413;-64
2021/05/04 13:50:54;;;;;;;1.30;1.20;;;;;;;;;;5051037;28;20456;-64
2021/05/04 13:53:21;;;;;;;0.77;0.70;;;;;;;;;;5051973;28;20434;-64
2021/05/04 13:55:47;;;;;;;1.17;1.17;;;;;;;;;;5051737;28;20476;-64
2021/05/04 13:58:15;;;;;;;1.10;1.10;;;;;;;;;;5051897;28;20411;-64
2021/05/04 14:24:49;;;;;;;0.93;0.93;;;;;;;;;;5050409;28;20718;-63
2021/05/04 14:27:15;;;;;;;0.80;0.80;;;;;;;;;;5051866;28;20671;-63
2021/05/04 14:29:41;;;;;;;1.15;1.10;;;;;;;;;;5050797;28;20648;-64
2021/05/04 14:32:07;;;;;;;0.73;0.73;;;;;;;;;;5051126;28;20175;-63
2021/05/04 14:34:33;;;;;;;0.65;0.65;;;;;;;;;;5050877;28;20909;-63
2021/05/04 14:37:47;;;;;;;1.50;1.17;;;;;;;;;;5050281;28;20294;-63
2021/05/04 14:40:13;;;;;;;1.13;1.03;;;;;;;;;;5039231;28;20195;-63
2021/05/04 14:56:19;;;;;;;3.35;1.00;;;;;;;;;;5051085;28;20196;-63
2021/05/04 15:01:32;;;;;;;1.05;1.05;;;;;;;;;;5049732;28;20652;-63
2021/05/04 15:03:59;;;;;;;1.38;1.27;;;;;;;;;;5050502;28;20274;-63
2021/05/04 15:06:25;;;;;;;1.35;1.25;;;;;;;;;;5050586;28;20188;-63
2021/05/04 15:08:51;;;;;;;1.48;1.30;;;;;;;;;;5049783;28;20164;-63
2021/05/04 15:11:18;;;;;;;1.60;1.08;;;;;;;;;;5050320;28;20168;-63
2021/05/04 15:13:48;;;;;;;1.85;0.68;;;;;;;;;;5049991;28;20642;-63
2021/05/04 15:16:21;;;;;;;1.58;1.42;;;;;;;;;;5050529;28;20207;-63
2021/05/04 15:24:07;;;;;;;0.50;0.50;;;;;;;;;;5049810;28;20302;-63
2021/05/04 15:26:33;;;;;;;0.65;0.65;;;;;;;;;;5050367;28;20183;-63
2021/05/04 15:28:59;;;;;;;2.75;1.05;;;;;;;;;;5049564;28;20164;-63
2021/05/04 15:31:29;;;;;;;1.35;1.25;;;;;;;;;;5050601;28;20168;-63
2021/05/04 15:33:55;;;;;;;0.50;0.50;;;;;;;;;;5050999;28;20203;-63
2021/05/04 15:36:22;;;;;;;1.27;1.17;;;;;;;;;;5054194;28;20757;-63
2021/05/04 15:38:49;;;;;;;0.70;0.70;;;;;;;;;;5053743;28;20229;-63
2021/05/04 15:41:17;;;;;;;1.13;0.98;;;;;;;;;;5054335;28;20218;-63
2021/05/04 15:43:48;;;;;;;0.60;0.52;;;;;;;;;;5054067;28;20672;-65
2021/05/04 15:48:58;;;;;;;1.50;0.85;;;;;;;;;;5053504;28;20168;-65
2021/05/04 16:07:45;;;;;;;1.02;0.90;;;;;;;;;;5054057;28;20206;-64
2021/05/04 16:10:12;;;;;;;0.90;0.90;;;;;;;;;;5052971;28;20184;-64
2021/05/04 16:12:38;;;;;;;0.82;0.75;;;;;;;;;;5053675;28;20183;-64
2021/05/04 16:15:04;;;;;;;1.42;1.33;;;;;;;;;;5053467;28;20196;-64
2021/05/04 16:17:30;;;;;;;0.70;0.70;;;;;;;;;;5053481;28;20200;-63
2021/05/04 16:19:59;;;;;;;1.08;1.08;;;;;;;;;;5052710;28;20191;-63
2021/05/04 16:22:31;;;;;;;4.32;1.52;;;;;;;;;;5053409;28;20194;-64
2021/05/04 16:25:09;;;;;;;1.63;1.58;;;;;;;;;;5053437;28;20215;-63